createdAt,value
2023-02-13T00:03:27.519Z,8.25
2023-02-13T00:07:29.576Z,9.75
2023-02-13T00:11:31.668Z,9.23
2023-02-13T00:15:33.966Z,8.93
2023-02-13T00:19:36.026Z,9.07
2023-02-13T00:23:39.595Z,8.93
2023-02-13T00:27:41.767Z,8.00
2023-02-13T00:31:43.857Z,7.78
2023-02-13T00:35:45.928Z,7.72
2023-02-13T00:39:48.014Z,7.68
2023-02-13T00:43:50.263Z,7.72
2023-02-13T00:47:52.405Z,7.50
2023-02-13T00:51:57.152Z,7.80
2023-02-13T00:55:59.679Z,7.10
2023-02-13T01:00:01.966Z,6.95
2023-02-13T01:04:04.074Z,7.60
2023-02-13T01:08:06.449Z,6.88
2023-02-13T01:12:08.591Z,5.70
2023-02-13T01:16:11.120Z,6.60
2023-02-13T01:20:13.602Z,7.18
2023-02-13T01:24:15.694Z,7.22
2023-02-13T01:28:17.940Z,7.18
2023-02-13T01:32:20.256Z,7.07
2023-02-13T01:36:22.403Z,6.43
2023-02-13T01:40:24.445Z,6.47
2023-02-13T01:44:46.245Z,6.30
2023-02-13T01:48:53.433Z,7.18
2023-02-13T01:53:01.381Z,6.60
2023-02-13T01:57:15.029Z,6.53
2023-02-13T02:01:17.528Z,7.43
2023-02-13T02:05:24.222Z,6.45
2023-02-13T02:09:30.245Z,7.22
2023-02-13T02:13:32.461Z,6.95
2023-02-13T02:17:39.944Z,7.25
2023-02-13T02:21:42.092Z,7.28
2023-02-13T02:26:01.313Z,7.57
2023-02-13T02:30:12.782Z,7.47
2023-02-13T02:34:30.117Z,8.23
2023-02-13T02:38:51.841Z,8.38
2023-02-13T02:43:19.597Z,8.68
2023-02-13T02:48:02.541Z,8.82
2023-02-13T02:52:12.781Z,9.02
2023-02-13T02:56:23.286Z,9.30
2023-02-13T03:00:46.647Z,9.27
2023-02-13T03:05:29.849Z,9.98
2023-02-13T03:09:55.709Z,9.02
2023-02-13T03:14:01.541Z,9.68
2023-02-13T03:18:22.294Z,8.95
2023-02-13T03:22:31.543Z,9.65
2023-02-13T03:27:03.273Z,9.98
2023-02-13T03:31:13.794Z,10.38
2023-02-13T03:35:53.559Z,9.90
2023-02-13T03:40:19.286Z,9.85
2023-02-13T03:44:33.327Z,10.32
2023-02-13T03:48:57.924Z,9.82
2023-02-13T03:53:06.299Z,10.27
2023-02-13T03:57:30.858Z,10.45
2023-02-13T04:01:35.979Z,10.00
2023-02-13T04:05:43.768Z,9.75
2023-02-13T04:09:45.775Z,9.68
2023-02-13T04:14:00.523Z,9.13
2023-02-13T04:18:11.030Z,9.20
2023-02-13T04:22:13.477Z,9.43
2023-02-13T04:26:19.779Z,9.23
2023-02-13T04:30:21.943Z,9.10
2023-02-13T04:34:23.970Z,9.00
2023-02-13T04:38:26.028Z,9.70
2023-02-13T04:42:28.069Z,9.77
2023-02-13T04:46:30.435Z,10.88
2023-02-13T04:50:32.524Z,10.93
2023-02-13T04:54:34.573Z,11.68
2023-02-13T04:58:36.766Z,13.00
2023-02-13T05:02:39.701Z,10.48
2023-02-13T05:06:42.430Z,10.02
2023-02-13T05:10:44.512Z,9.23
2023-02-13T05:14:46.539Z,9.95
2023-02-13T05:18:48.547Z,9.93
2023-02-13T05:23:12.219Z,9.88
2023-02-13T05:27:14.355Z,9.23
2023-02-13T05:31:16.573Z,9.68
2023-02-13T05:35:19.264Z,9.25
2023-02-13T05:39:21.790Z,9.15
2023-02-13T05:43:23.749Z,9.15
2023-02-13T05:47:25.796Z,9.23
2023-02-13T05:51:27.871Z,9.05
2023-02-13T05:55:29.874Z,9.10
2023-02-13T05:59:31.884Z,8.77
2023-02-13T06:03:34.159Z,9.50
2023-02-13T06:07:36.226Z,8.85
2023-02-13T06:11:38.273Z,8.82
2023-02-13T06:15:40.670Z,8.63
2023-02-13T06:19:42.690Z,9.20
2023-02-13T06:23:44.865Z,9.13
2023-02-13T06:27:47.512Z,9.75
2023-02-13T06:31:49.599Z,8.50
2023-02-13T06:35:51.736Z,9.10
2023-02-13T06:39:53.802Z,9.57
2023-02-13T06:43:55.795Z,9.73
2023-02-13T06:47:57.795Z,8.93
2023-02-13T06:51:59.811Z,8.70
2023-02-13T06:56:06.264Z,8.65
2023-02-13T07:00:09.063Z,10.43
2023-02-13T07:04:11.073Z,8.85
2023-02-13T07:08:13.536Z,9.20
2023-02-13T07:12:15.570Z,9.38
2023-02-13T07:16:17.729Z,9.77
2023-02-13T07:20:19.903Z,9.65
2023-02-13T07:24:21.910Z,9.68
2023-02-13T07:28:24.001Z,9.60
2023-02-13T07:32:26.111Z,9.07
2023-02-13T07:36:28.672Z,11.95
2023-02-13T07:40:30.719Z,11.82
2023-02-13T07:44:33.025Z,9.90
2023-02-13T07:48:35.123Z,10.07
2023-02-13T07:52:37.934Z,10.13
2023-02-13T07:56:40.051Z,10.75
2023-02-13T08:00:42.122Z,10.48
2023-02-13T08:04:47.640Z,10.68
2023-02-13T08:09:09.750Z,12.10
2023-02-13T08:13:13.958Z,13.43
2023-02-13T08:17:15.955Z,13.68
2023-02-13T08:21:17.975Z,13.88
2023-02-13T08:25:20.243Z,11.48
2023-02-13T08:29:22.364Z,10.98
2023-02-13T08:33:24.995Z,10.00
2023-02-13T08:37:27.019Z,10.40
2023-02-13T08:41:29.033Z,9.18
2023-02-13T08:45:32.398Z,8.68
2023-02-13T08:49:34.451Z,8.98
2023-02-13T08:53:36.981Z,7.78
2023-02-13T08:57:39.011Z,8.90
2023-02-13T09:01:41.555Z,8.82
2023-02-13T09:05:43.878Z,9.20
2023-02-13T09:09:45.933Z,9.07
2023-02-13T09:13:48.324Z,7.68
2023-02-13T09:17:51.165Z,6.97
2023-02-13T09:21:53.195Z,7.15
2023-02-13T09:25:55.358Z,7.05
2023-02-13T09:29:57.504Z,8.10
2023-02-13T09:33:59.550Z,6.93
2023-02-13T09:38:01.755Z,7.22
2023-02-13T09:42:14.102Z,6.70
2023-02-13T09:46:20.964Z,6.60
2023-02-13T09:50:28.265Z,6.55
2023-02-13T09:58:51.910Z,6.43
2023-02-13T10:02:56.884Z,6.65
2023-02-13T10:07:40.632Z,6.70
2023-02-13T10:12:08.100Z,6.28
2023-02-13T10:16:36.892Z,6.75
2023-02-13T10:20:50.616Z,6.60
2023-02-13T10:25:13.008Z,6.57
2023-02-13T10:29:52.277Z,6.30
2023-02-13T10:34:02.686Z,5.55
2023-02-13T10:38:15.702Z,6.07
2023-02-13T10:42:43.726Z,6.22
2023-02-13T10:47:05.722Z,6.22
2023-02-13T10:51:40.437Z,6.70
2023-02-13T10:56:11.018Z,6.20
2023-02-13T11:00:18.760Z,5.80
2023-02-13T11:04:20.925Z,5.90
2023-02-13T11:08:33.430Z,5.82
2023-02-13T11:12:35.494Z,5.72
2023-02-13T11:16:46.952Z,6.68
2023-02-13T11:21:02.513Z,5.80
2023-02-13T11:25:31.759Z,6.03
2023-02-13T11:29:35.484Z,5.28
2023-02-13T11:33:37.727Z,5.95
2023-02-13T11:37:40.517Z,5.55
2023-02-13T11:41:44.731Z,5.95
2023-02-13T11:45:46.962Z,6.38
2023-02-13T11:49:49.311Z,5.78
2023-02-13T11:53:51.418Z,5.50
2023-02-13T11:58:00.415Z,5.10
2023-02-13T12:02:03.687Z,4.80
2023-02-13T12:06:08.700Z,5.15
2023-02-13T12:10:23.036Z,5.30
2023-02-13T12:14:31.587Z,4.97
2023-02-13T12:18:38.713Z,4.65
2023-02-13T12:22:48.613Z,4.43
2023-02-13T12:26:59.548Z,4.95
2023-02-13T12:31:09.221Z,4.18
2023-02-13T12:35:41.177Z,4.40
2023-02-13T12:40:15.666Z,3.67
2023-02-13T12:44:30.049Z,3.85
2023-02-13T12:48:45.218Z,3.53
2023-02-13T12:53:17.136Z,3.65
2023-02-13T12:57:47.181Z,3.53
2023-02-13T13:02:24.807Z,3.97
2023-02-13T13:06:49.289Z,3.83
2023-02-13T13:11:09.256Z,4.22
2023-02-13T13:15:21.854Z,4.85
2023-02-13T13:19:38.844Z,4.90
2023-02-13T13:24:01.030Z,4.53
2023-02-13T13:28:16.770Z,4.30
2023-02-13T13:32:21.606Z,4.97
2023-02-13T13:36:42.308Z,4.35
2023-02-13T13:40:58.167Z,4.32
2023-02-13T13:45:20.935Z,3.83
2023-02-13T13:49:48.530Z,3.50
2023-02-13T13:53:59.664Z,2.63
2023-02-13T13:58:02.008Z,2.90
2023-02-13T14:02:19.479Z,3.00
2023-02-13T14:06:28.293Z,2.78
2023-02-13T14:10:30.261Z,2.80
2023-02-13T14:14:35.296Z,2.90
2023-02-13T14:18:38.709Z,3.35
2023-02-13T14:22:41.290Z,3.42
2023-02-13T14:26:43.359Z,3.88
2023-02-13T14:30:45.536Z,4.20
2023-02-13T14:34:59.438Z,3.78
2023-02-13T14:39:15.847Z,3.38
2023-02-13T14:43:28.651Z,3.92
2023-02-13T14:47:36.316Z,3.35
2023-02-13T14:51:46.877Z,4.03
2023-02-13T14:55:56.533Z,3.78
2023-02-13T15:00:04.333Z,6.38
2023-02-13T15:04:25.923Z,3.58
2023-02-13T15:08:33.959Z,4.03
2023-02-13T15:12:37.159Z,3.20
2023-02-13T15:16:39.532Z,3.67
2023-02-13T15:20:43.364Z,4.07
2023-02-13T15:24:47.965Z,4.32
2023-02-13T15:29:27.756Z,3.60
2023-02-13T15:33:44.371Z,3.60
2023-02-13T15:37:46.380Z,4.07
2023-02-13T15:41:51.018Z,4.63
2023-02-13T15:45:53.277Z,4.90
2023-02-13T15:49:55.963Z,4.28
2023-02-13T15:54:01.705Z,4.25
2023-02-13T15:58:04.371Z,3.00
2023-02-13T16:02:15.319Z,2.78
2023-02-13T16:06:20.277Z,3.67
2023-02-13T16:10:36.483Z,3.50
2023-02-13T16:15:02.244Z,5.07
2023-02-13T16:19:04.680Z,6.53
2023-02-13T16:23:27.101Z,4.13
2023-02-13T16:27:29.276Z,3.25
2023-02-13T16:31:31.478Z,3.58
2023-02-13T16:35:37.911Z,3.70
2023-02-13T16:39:39.997Z,4.37
2023-02-13T16:43:51.641Z,3.80
2023-02-13T16:48:03.207Z,4.20
2023-02-13T16:52:16.917Z,3.70
2023-02-13T16:56:18.991Z,3.90
2023-02-13T17:00:25.577Z,4.10
2023-02-13T17:04:27.874Z,4.30
2023-02-13T17:08:33.030Z,6.55
2023-02-13T17:12:38.034Z,14.02
2023-02-13T17:16:40.107Z,18.48
2023-02-13T17:20:44.054Z,15.63
2023-02-13T17:24:46.134Z,5.85
2023-02-13T17:28:48.112Z,4.57
2023-02-13T17:32:57.341Z,4.68
2023-02-13T17:36:59.517Z,4.47
2023-02-13T17:41:01.739Z,5.13
2023-02-13T17:45:04.409Z,5.95
2023-02-13T17:49:06.445Z,6.20
2023-02-13T17:53:18.895Z,6.40
2023-02-13T17:57:20.924Z,5.45
2023-02-13T18:01:22.983Z,5.72
2023-02-13T18:05:25.570Z,5.20
2023-02-13T18:09:27.631Z,6.00
2023-02-13T18:13:29.657Z,5.47
2023-02-13T18:17:31.667Z,5.60
2023-02-13T18:21:33.688Z,5.65
2023-02-13T18:25:36.158Z,5.72
2023-02-13T18:29:38.597Z,7.28
2023-02-13T18:33:40.643Z,5.70
2023-02-13T18:37:42.761Z,7.50
2023-02-13T18:41:44.857Z,7.70
2023-02-13T18:45:47.043Z,6.45
2023-02-13T18:49:49.215Z,5.85
2023-02-13T18:53:51.508Z,9.38
2023-02-13T18:57:53.613Z,11.45
2023-02-13T19:01:55.675Z,10.00
2023-02-13T19:05:58.960Z,9.82
2023-02-13T19:10:01.114Z,8.27
2023-02-13T19:14:03.243Z,8.05
2023-02-13T19:18:05.378Z,7.22
2023-02-13T19:22:07.402Z,7.57
2023-02-13T19:26:12.272Z,8.80
2023-02-13T19:30:14.529Z,8.68
2023-02-13T19:34:16.618Z,8.85
2023-02-13T19:38:19.377Z,9.85
2023-02-13T19:42:21.380Z,10.88
2023-02-13T19:46:28.781Z,9.85
2023-02-13T19:50:30.857Z,9.15
2023-02-13T19:54:34.028Z,8.70
2023-02-13T19:58:40.091Z,9.63
2023-02-13T20:02:42.198Z,11.77
2023-02-13T20:06:44.312Z,11.73
2023-02-13T20:10:46.326Z,11.45
2023-02-13T20:14:48.378Z,11.07
2023-02-13T20:18:50.609Z,10.73
2023-02-13T20:22:52.622Z,10.60
2023-02-13T20:26:56.434Z,10.80
2023-02-13T20:30:59.091Z,13.18
2023-02-13T20:35:01.331Z,12.10
2023-02-13T20:39:05.731Z,10.38
2023-02-13T20:43:07.762Z,10.20
2023-02-13T20:47:10.335Z,8.63
2023-02-13T20:51:14.679Z,7.85
2023-02-13T20:55:16.888Z,6.88
2023-02-13T20:59:19.007Z,7.53
2023-02-13T21:03:21.055Z,7.25
2023-02-13T21:07:23.686Z,7.93
2023-02-13T21:11:26.391Z,7.38
2023-02-13T21:15:28.384Z,7.57
2023-02-13T21:19:31.272Z,8.73
2023-02-13T21:23:33.662Z,9.30
2023-02-13T21:27:35.690Z,8.98
2023-02-13T21:31:44.146Z,9.98
2023-02-13T21:35:46.235Z,9.90
2023-02-13T21:39:48.262Z,13.80
2023-02-13T21:43:51.006Z,13.88
2023-02-13T21:47:56.655Z,11.32
2023-02-13T21:51:58.715Z,13.23
2023-02-13T21:56:03.068Z,13.02
2023-02-13T22:00:09.595Z,17.00
2023-02-13T22:04:14.440Z,18.02
2023-02-13T22:08:16.540Z,16.05
2023-02-13T22:12:18.537Z,16.02
2023-02-13T22:16:20.567Z,14.50
2023-02-13T22:20:22.766Z,19.38
2023-02-13T22:24:24.923Z,14.88
2023-02-13T22:28:27.541Z,13.70
2023-02-13T22:32:29.546Z,12.27
2023-02-13T22:36:33.583Z,12.57
2023-02-13T22:40:36.763Z,12.45
2023-02-13T22:44:38.772Z,12.00
2023-02-13T22:48:42.150Z,15.48
2023-02-13T22:52:44.201Z,12.43
2023-02-13T22:56:46.298Z,12.68
2023-02-13T23:00:48.328Z,12.85
2023-02-13T23:04:50.432Z,12.88
2023-02-13T23:08:53.578Z,13.15
2023-02-13T23:12:55.753Z,13.32
2023-02-13T23:17:16.433Z,13.73
2023-02-13T23:21:19.107Z,15.27
2023-02-13T23:25:21.646Z,14.52
2023-02-13T23:29:24.024Z,15.30
2023-02-13T23:33:26.365Z,15.85
2023-02-13T23:37:28.513Z,15.57
2023-02-13T23:41:30.562Z,15.70
2023-02-13T23:45:32.577Z,15.93
2023-02-13T23:49:34.676Z,16.65
2023-02-13T23:53:37.329Z,16.42
2023-02-13T23:57:39.408Z,17.63
